Adak Airport
PADK : rendu visible

Aérodrome :











RETROUVEZ-NOUS SUR...

 
LOGIN :

S'inscrire | Disclaimer

   EN    FR    IT 

 









Légende :    VFR   VFR Marginal   IFR   IFR Intensif   IFR Très Intensif
Visi : 
Plafond : 
>= 8 km
>= 3000ft
5 à 8 km
1000 à 3000 ft
1500m à 5 km
500 à 1000 ft
800 à 1500m
200 à 500 ft
< 800m
< 200 ft
Symboles :   Orages  Brouillard  Fortes neiges  Fortes précipitations  Vent > 20 kt






- Altitude de l'aérodrome : 18 ft
- Code IATA : ADK


PADK - Adak

DERNIER METAR :
  • 242107Z AUTO 26023G30KT 5SM -RA BR FEW008 SCT021 BKN031 02/01 A2903 RMK AO2 PK WND 27030/2059 RAB2057 P0000 FZRANO

METARs EXPIRÉS :
  • 242056Z AUTO 26024G30KT 9SM FEW026 BKN035 BKN045 03/00 A2903 RMK AO2 PK WND 26030/2056 RAE1957B22E37 SLP829 P0000 60000 T00330000 53027
  • 241956Z AUTO 27017G29KT 10SM -RA FEW019 SCT044 BKN055 02/M01 A2900 RMK AO2 PK WND 27029/1948 UPB04E14RAB14E30B46 SLP820 P0000 T00221011 FZRANO
  • 241936Z AUTO 26017G24KT 10SM FEW017 BKN030 OVC048 03/01 A2899 RMK AO2 UPB04E14RAB14E30 P0000
  • 241929Z AUTO 26020KT 10SM -RA FEW017 BKN026 OVC041 03/01 A2899 RMK AO2 UPB04E14RAB14 P0000
  • 241907Z AUTO 24018KT 10SM UP SCT011 SCT022 BKN038 02/01 A2898 RMK AO2 UPB04 P0000 FZRANO
  • 241856Z AUTO 25017G22KT 10SM SCT011 BKN015 BKN044 02/01 A2897 RMK AO2 PK WND 26038/1830 RAB21E46 SLP811 P0000 T00220011 FZRANO
  • 241828Z AUTO 25028G35KT 10SM -RA FEW018 BKN023 BKN049 03/01 A2896 RMK AO2 PK WND 25035/1827 RAB21 P0000

TAF N/A
FIR PAZA / Amérique du Nord



MET'MAP, la Météo Aéronautique d'un coup d'oeil ! - Copyright ORBIFLY Décembre 2007 - Disclaimer

ORBIFLY MET'MAP TEAM :

Programmation & Développement : Alexandra Zaïnal
Sur une idée originale de : Baudouin d'Aumeries
Assistance à la programmation : Marc-Olivier Méhu
Soutien technique & logistique : Manuel Goepfert

Contact : metmap@orbifly.com




SOURCES & CREDITS :

   NOAA       Earth
Advisory